Time;durP1;ratioP1;P1;durP2;ratioP2;P2;SDS_P1;SDS_P2;PMS_P1;PMS_P2;Temp;Humidity;BMP_temperature;BMP_pressure;BME280_temperature;BME280_humidity;BME280_pressure;Samples;Min_cycle;Max_cycle;Signal;HPM_P1;HPM_P2
2022/01/14 00:00:38;;;;;;;22.87;16.23;;;;;;;-4.82;60.14;96207.50;6194976;23;20194;-66
2022/01/14 00:03:04;;;;;;;24.27;16.77;;;;;;;-4.83;60.11;96206.69;6167017;23;20196;-65
2022/01/14 00:05:29;;;;;;;24.97;16.83;;;;;;;-4.91;60.02;96201.69;6193242;23;20201;-64
2022/01/14 00:07:55;;;;;;;23.43;16.10;;;;;;;-4.97;60.49;96198.38;6167855;23;20268;-65
2022/01/14 00:10:20;;;;;;;25.23;16.83;;;;;;;-4.87;60.02;96199.91;6167843;23;20202;-65
2022/01/14 00:12:52;;;;;;;23.97;16.00;;;;;;;-4.87;60.18;96208.44;6168697;23;20198;-66
2022/01/14 00:15:24;;;;;;;22.47;15.90;;;;;;;-4.80;60.48;96205.78;6170602;23;20233;-65
2022/01/14 00:17:52;;;;;;;27.67;16.60;;;;;;;-4.77;60.15;96213.41;6195619;23;20288;-65
2022/01/14 00:20:19;;;;;;;25.00;16.40;;;;;;;-4.77;60.05;96208.28;6194175;23;20194;-64
2022/01/14 00:22:45;;;;;;;21.87;15.87;;;;;;;-4.79;60.22;96203.16;6193453;23;20198;-65
2022/01/14 00:33:09;;;;;;;24.63;16.57;;;;;;;-4.77;59.90;96232.19;6195740;23;20308;-65
2022/01/14 00:35:41;;;;;;;23.00;16.63;;;;;;;-4.79;59.75;96226.25;6195564;23;20194;-67
2022/01/14 00:38:08;;;;;;;23.40;16.80;;;;;;;-4.70;59.36;96222.69;6194349;23;20206;-66
2022/01/14 00:40:34;;;;;;;24.47;16.80;;;;;;;-4.69;59.64;96235.47;6169340;23;20217;-68
2022/01/14 00:43:00;;;;;;;23.73;17.00;;;;;;;-4.70;59.48;96235.50;6168448;23;20194;-65
2022/01/14 00:45:25;;;;;;;24.20;15.87;;;;;;;-4.69;59.51;96219.22;6168646;23;20253;-65
2022/01/14 00:47:51;;;;;;;26.27;16.77;;;;;;;-4.74;59.58;96221.03;6169418;23;20185;-65
2022/01/14 00:50:18;;;;;;;23.07;16.13;;;;;;;-4.73;59.91;96225.28;6168623;23;20225;-68
2022/01/14 00:52:44;;;;;;;23.40;15.80;;;;;;;-4.59;59.39;96218.16;6168699;23;20248;-69
2022/01/14 00:55:15;;;;;;;21.90;15.93;;;;;;;-4.62;59.07;96227.63;6194081;23;20201;-67
2022/01/14 01:00:34;;;;;;;23.80;16.40;;;;;;;-4.60;59.22;96229.28;6194770;23;20178;-66
2022/01/14 01:03:01;;;;;;;24.60;16.77;;;;;;;-4.55;59.10;96224.06;6168683;23;20225;-65
2022/01/14 01:05:28;;;;;;;24.27;17.00;;;;;;;-4.58;59.33;96224.16;6168824;23;20201;-65
2022/01/14 01:10:30;;;;;;;24.03;16.07;;;;;;;-4.54;58.98;96213.78;6195243;23;20213;-65
2022/01/14 01:13:34;;;;;;;25.33;15.80;;;;;;;-4.54;59.21;96210.38;6169268;23;20209;-68
2022/01/14 01:15:49;;;;;;;23.30;15.90;;;;;;;-4.55;59.19;96206.09;6190359;23;20214;-66
2022/01/14 01:18:16;;;;;;;24.63;16.10;;;;;;;-4.73;59.03;96200.50;6169231;23;20178;-70
2022/01/14 01:20:42;;;;;;;24.43;16.13;;;;;;;-4.60;59.08;96205.34;6168948;23;20256;-67
2022/01/14 01:23:07;;;;;;;24.90;16.33;;;;;;;-4.49;59.18;96194.00;6168663;23;20214;-66
2022/01/14 01:25:40;;;;;;;23.83;15.57;;;;;;;-4.45;58.08;96179.38;6196355;23;20190;-66
2022/01/14 01:28:06;;;;;;;24.30;15.67;;;;;;;-4.51;58.13;96175.22;6169763;23;20208;-67
2022/01/14 01:32:59;;;;;;;20.20;14.47;;;;;;;-4.46;58.38;96175.13;6196666;23;20189;-67
2022/01/14 01:35:25;;;;;;;22.27;15.33;;;;;;;-4.43;57.73;96183.59;6195225;23;20206;-64
2022/01/14 01:37:51;;;;;;;26.50;16.00;;;;;;;-4.39;58.32;96183.53;6170311;23;20209;-66
2022/01/14 01:40:19;;;;;;;23.10;14.50;;;;;;;-4.41;57.87;96180.13;6170942;23;20190;-66
2022/01/14 01:42:46;;;;;;;22.90;15.27;;;;;;;-4.43;57.98;96170.75;6171086;23;20212;-67
2022/01/14 01:45:15;;;;;;;25.53;15.30;;;;;;;-4.43;58.03;96170.75;6196370;23;20187;-66
2022/01/14 01:47:42;;;;;;;23.93;15.90;;;;;;;-4.41;57.47;96163.03;6196555;23;20213;-65
2022/01/14 01:50:14;;;;;;;23.37;15.20;;;;;;;-4.29;57.17;96160.19;6195390;23;20214;-66
2022/01/14 01:52:40;;;;;;;24.07;15.70;;;;;;;-4.30;57.50;96168.78;6170638;23;20186;-66
2022/01/14 01:55:06;;;;;;;23.93;16.27;;;;;;;-4.30;57.05;96157.66;6168587;23;20213;-67
2022/01/14 01:57:32;;;;;;;22.50;14.87;;;;;;;-4.32;57.47;96162.81;6170381;23;20190;-65
2022/01/14 01:59:58;;;;;;;22.60;15.57;;;;;;;-4.29;57.19;96159.34;6171973;23;20186;-65
2022/01/14 02:02:24;;;;;;;24.10;15.30;;;;;;;-4.35;57.70;96152.63;6170588;23;20198;-65
2022/01/14 02:04:50;;;;;;;24.70;15.67;;;;;;;-4.35;57.44;96159.50;6169836;23;20205;-65
2022/01/14 02:07:15;;;;;;;22.57;15.77;;;;;;;-4.38;57.39;96145.00;6169726;23;20198;-67
2022/01/14 02:09:41;;;;;;;21.20;15.43;;;;;;;-4.32;57.91;96129.44;6170645;23;20178;-66
2022/01/14 02:12:10;;;;;;;23.00;15.67;;;;;;;-4.33;57.04;96124.31;6196580;23;20193;-66
2022/01/14 02:22:50;;;;;;;21.53;15.23;;;;;;;-4.46;57.52;96105.81;6194363;23;20212;-68
2022/01/14 02:25:28;;;;;;;19.93;13.97;;;;;;;-4.47;57.63;96104.09;6170313;23;20202;-65
2022/01/14 02:27:54;;;;;;;23.00;15.07;;;;;;;-4.50;58.09;96107.59;6195913;23;20209;-65
2022/01/14 02:30:21;;;;;;;22.13;14.83;;;;;;;-4.50;58.07;96099.88;6170393;23;20186;-69
2022/01/14 02:32:46;;;;;;;21.90;14.07;;;;;;;-4.46;58.02;96106.66;6170194;23;20256;-66
2022/01/14 02:35:12;;;;;;;25.40;15.30;;;;;;;-4.43;57.85;96103.16;6195331;23;20202;-66
2022/01/14 02:37:38;;;;;;;21.87;15.70;;;;;;;-4.38;57.17;96110.75;6196759;23;20209;-67
2022/01/14 02:40:04;;;;;;;24.80;14.13;;;;;;;-4.37;57.48;96107.31;6194923;23;20210;-65
2022/01/14 02:42:30;;;;;;;24.97;15.90;;;;;;;-4.49;57.78;96106.72;6196022;23;20182;-65
2022/01/14 02:45:01;;;;;;;23.50;15.03;;;;;;;-4.46;57.73;96105.81;6170602;23;20190;-66
2022/01/14 02:47:27;;;;;;;22.23;14.83;;;;;;;-4.44;57.36;96104.91;6170288;23;20471;-65
2022/01/14 02:49:53;;;;;;;28.70;15.57;;;;;;;-4.38;57.51;96100.47;6195883;23;20193;-66
2022/01/14 02:52:28;;;;;;;24.03;15.67;;;;;;;-4.45;57.84;96103.19;6195985;23;20208;-68
2022/01/14 02:55:13;;;;;;;22.30;14.13;;;;;;;-4.54;57.87;96089.75;6194824;23;20210;-67
2022/01/14 02:57:42;;;;;;;23.10;14.47;;;;;;;-4.42;57.79;96092.00;6168299;23;20189;-67
2022/01/14 03:00:08;;;;;;;23.50;15.20;;;;;;;-4.50;57.42;96094.75;6195397;23;20174;-67
2022/01/14 03:02:36;;;;;;;24.47;16.10;;;;;;;-4.47;58.09;96089.53;6168502;23;20213;-66
2022/01/14 03:05:02;;;;;;;22.13;14.47;;;;;;;-4.32;57.40;96082.38;6169467;23;20198;-67
2022/01/14 03:07:27;;;;;;;22.57;15.03;;;;;;;-4.37;57.38;96076.50;6169221;23;20198;-64
2022/01/14 03:09:53;;;;;;;24.57;14.77;;;;;;;-4.30;57.25;96088.34;6170466;23;20279;-67
2022/01/14 03:12:19;;;;;;;19.97;14.43;;;;;;;-4.33;57.22;96075.53;6196965;23;20180;-67
2022/01/14 03:14:45;;;;;;;22.73;14.37;;;;;;;-4.31;57.42;96068.66;6169622;23;20205;-66
2022/01/14 03:17:11;;;;;;;19.07;13.03;;;;;;;-4.42;57.16;96061.22;6195154;23;20194;-69
2022/01/14 03:19:37;;;;;;;24.57;14.60;;;;;;;-4.40;57.11;96062.03;6169113;23;20248;-64
2022/01/14 03:22:17;;;;;;;24.17;14.63;;;;;;;-4.35;56.76;96061.91;6169561;23;20265;-64
2022/01/14 03:27:08;;;;;;;18.30;13.30;;;;;;;-4.36;56.85;96042.25;6196875;23;20280;-67
2022/01/14 03:29:34;;;;;;;20.77;13.87;;;;;;;-4.37;56.92;96033.69;6170714;23;20201;-65
2022/01/14 03:32:00;;;;;;;20.03;13.60;;;;;;;-4.29;56.66;96031.78;6169686;23;20201;-66
2022/01/14 03:34:26;;;;;;;23.40;14.37;;;;;;;-4.43;57.17;96033.84;6195689;23;20208;-67
2022/01/14 03:36:52;;;;;;;22.27;13.60;;;;;;;-4.30;56.51;96040.38;6194835;23;20208;-65
2022/01/14 03:39:18;;;;;;;23.03;14.20;;;;;;;-4.37;56.94;96035.44;6169912;23;20177;-69
2022/01/14 03:41:43;;;;;;;18.27;13.17;;;;;;;-4.39;57.22;96030.31;6169574;23;20248;-69
2022/01/14 03:44:09;;;;;;;21.40;13.77;;;;;;;-4.35;56.62;96036.25;6169396;23;20220;-66
2022/01/14 03:46:35;;;;;;;22.27;14.53;;;;;;;-4.35;56.39;96026.81;6194866;23;20245;-68
2022/01/14 03:49:00;;;;;;;20.07;13.07;;;;;;;-4.31;57.05;96017.28;6169654;23;20206;-67
2022/01/14 03:51:28;;;;;;;19.10;13.20;;;;;;;-4.27;55.97;96029.19;6169444;23;20208;-66
2022/01/14 03:53:53;;;;;;;21.47;13.13;;;;;;;-4.26;55.90;96018.03;6195066;23;20190;-68
2022/01/14 03:56:19;;;;;;;19.27;13.20;;;;;;;-4.28;55.73;96015.50;6193879;23;20249;-68
2022/01/14 03:58:44;;;;;;;24.50;14.43;;;;;;;-4.19;55.79;96022.16;6168951;23;20194;-66
2022/01/14 04:01:11;;;;;;;19.27;12.97;;;;;;;-4.14;55.68;96017.75;6169773;23;20194;-66
2022/01/14 04:03:37;;;;;;;21.90;13.97;;;;;;;-4.22;55.45;96020.50;6195403;23;20208;-65
2022/01/14 04:06:03;;;;;;;20.07;13.43;;;;;;;-4.18;55.54;96034.09;6195413;23;20174;-66
2022/01/14 04:08:29;;;;;;;23.37;14.07;;;;;;;-4.31;55.60;96035.28;6193124;23;20202;-67
2022/01/14 04:10:56;;;;;;;21.60;13.40;;;;;;;-4.30;55.78;96037.81;6168478;23;20212;-68
2022/01/14 04:13:34;;;;;;;20.87;13.93;;;;;;;-4.33;55.61;96024.19;6195186;23;20289;-65
2022/01/14 04:16:00;;;;;;;19.80;14.00;;;;;;;-4.41;55.90;96005.56;6194524;23;20268;-65
2022/01/14 04:18:26;;;;;;;21.13;14.30;;;;;;;-4.26;55.35;96002.63;6195261;23;20182;-68
2022/01/14 04:20:52;;;;;;;18.13;12.57;;;;;;;-4.15;55.22;96010.06;6170185;23;20178;-67
2022/01/14 04:23:21;;;;;;;18.90;13.17;;;;;;;-4.30;54.99;96004.44;6194638;23;20206;-68
2022/01/14 04:25:53;;;;;;;18.13;12.40;;;;;;;-4.23;54.72;95999.97;6193803;23;20272;-65
2022/01/14 04:28:20;;;;;;;22.00;13.67;;;;;;;-4.14;54.72;96004.03;6194614;23;20212;-67
2022/01/14 04:30:46;;;;;;;23.63;13.50;;;;;;;-4.17;54.41;96007.53;6169099;23;20250;-67
2022/01/14 04:33:12;;;;;;;19.87;12.90;;;;;;;-4.17;54.64;96001.53;6168610;23;20186;-66
2022/01/14 04:35:37;;;;;;;19.47;13.40;;;;;;;-4.21;54.54;96005.94;6169004;23;20205;-65
2022/01/14 04:38:04;;;;;;;20.43;13.17;;;;;;;-4.24;54.62;95996.56;6170009;23;20229;-66
2022/01/14 04:40:30;;;;;;;18.07;12.73;;;;;;;-4.19;54.79;96006.72;6169611;23;20194;-64
2022/01/14 04:42:58;;;;;;;20.10;12.90;;;;;;;-4.25;55.04;96004.31;6193740;23;20284;-66
2022/01/14 04:45:40;;;;;;;20.77;13.23;;;;;;;-4.19;54.71;96004.16;6168158;23;20492;-67
2022/01/14 04:48:09;;;;;;;20.30;13.03;;;;;;;-4.22;54.73;96007.66;6168893;23;20204;-66
2022/01/14 04:50:34;;;;;;;21.43;13.50;;;;;;;-4.12;54.77;96000.53;6167041;23;20206;-65
2022/01/14 04:53:00;;;;;;;23.00;14.60;;;;;;;-4.06;54.92;96004.69;6194937;23;20256;-64
2022/01/14 04:55:27;;;;;;;21.27;14.20;;;;;;;-4.13;55.18;96000.59;6194437;23;20197;-62
2022/01/14 04:57:54;;;;;;;21.13;12.93;;;;;;;-4.05;54.45;95994.38;6194414;23;20206;-66
2022/01/14 05:00:23;;;;;;;20.60;13.37;;;;;;;-4.13;54.60;96001.44;6171073;23;20192;-64
2022/01/14 05:02:52;;;;;;;20.60;13.27;;;;;;;-4.09;54.43;95997.06;6168117;23;20264;-64
2022/01/14 05:05:20;;;;;;;21.53;14.33;;;;;;;-4.05;54.54;95991.81;6169678;23;20214;-64
2022/01/14 05:07:47;;;;;;;20.00;13.43;;;;;;;-4.10;54.83;95990.25;6196024;23;20201;-64
2022/01/14 05:10:22;;;;;;;21.83;14.37;;;;;;;-4.18;54.71;95975.03;6196500;23;20209;-64
2022/01/14 05:12:49;;;;;;;21.20;14.33;;;;;;;-4.21;55.53;95977.69;6171520;23;20208;-64
2022/01/14 05:15:16;;;;;;;21.37;14.13;;;;;;;-4.23;55.50;95976.88;6195671;23;20190;-66
2022/01/14 05:17:41;;;;;;;20.70;14.07;;;;;;;-4.25;55.39;95971.78;6168685;23;20198;-67
2022/01/14 05:20:08;;;;;;;21.47;13.93;;;;;;;-4.19;55.58;95980.22;6170527;23;20198;-67
2022/01/14 05:22:33;;;;;;;22.13;13.57;;;;;;;-4.19;55.51;95969.94;6195113;23;20206;-68
2022/01/14 05:24:59;;;;;;;22.90;13.53;;;;;;;-4.03;55.01;95984.91;6170298;23;20217;-67
2022/01/14 05:27:24;;;;;;;24.30;13.97;;;;;;;-3.94;54.81;95988.94;6169002;23;20189;-66
2022/01/14 05:29:50;;;;;;;24.30;15.87;;;;;;;-4.01;54.88;95983.16;6171161;23;20233;-67
2022/01/14 05:32:16;;;;;;;21.67;14.17;;;;;;;-4.06;55.13;95986.72;6195983;23;20201;-66
2022/01/14 05:34:45;;;;;;;22.23;14.23;;;;;;;-4.08;55.58;95984.19;6195258;23;20245;-66
2022/01/14 05:37:11;;;;;;;23.37;13.17;;;;;;;-4.15;55.72;95985.22;6193720;23;20194;-66
2022/01/14 05:39:37;;;;;;;22.60;14.53;;;;;;;-4.13;56.07;95992.88;6168506;23;20186;-67
2022/01/14 05:42:04;;;;;;;27.33;14.50;;;;;;;-4.14;55.92;95979.22;6194706;23;20186;-66
2022/01/14 05:44:30;;;;;;;19.73;13.13;;;;;;;-4.09;55.94;95982.50;6194452;23;20209;-65
2022/01/14 05:46:58;;;;;;;22.20;14.53;;;;;;;-4.11;56.03;95984.25;6193872;23;20248;-65
2022/01/14 05:49:24;;;;;;;19.50;13.50;;;;;;;-4.24;56.58;95972.63;6170063;23;20202;-67
2022/01/14 05:51:50;;;;;;;20.27;13.83;;;;;;;-4.24;56.16;95963.19;6195250;23;20209;-66
2022/01/14 05:54:17;;;;;;;21.07;14.17;;;;;;;-4.19;56.33;95975.06;6170264;23;20174;-65
2022/01/14 05:56:43;;;;;;;21.37;14.73;;;;;;;-4.16;56.10;95969.84;6168738;23;20249;-65
2022/01/14 05:59:08;;;;;;;20.13;14.07;;;;;;;-4.15;56.17;95968.97;6170517;23;20198;-66
2022/01/14 06:01:34;;;;;;;22.57;15.50;;;;;;;-3.99;55.91;95965.94;6169769;23;20272;-65
2022/01/14 06:04:03;;;;;;;21.53;12.90;;;;;;;-3.92;55.61;95953.78;6195209;23;20209;-65
2022/01/14 06:06:30;;;;;;;22.07;13.30;;;;;;;-3.80;55.36;95960.31;6170719;23;20197;-68
2022/01/14 06:08:56;;;;;;;21.47;14.50;;;;;;;-3.80;55.69;95955.16;6170482;23;20208;-65
2022/01/14 06:11:22;;;;;;;23.20;14.03;;;;;;;-3.75;55.96;95960.19;6168570;23;20206;-64
2022/01/14 06:13:48;;;;;;;20.77;13.83;;;;;;;-3.68;55.57;95952.28;6169639;23;20202;-64
2022/01/14 06:16:14;;;;;;;22.57;13.93;;;;;;;-3.56;55.38;95959.63;6169194;23;20210;-65
2022/01/14 06:18:40;;;;;;;25.83;15.00;;;;;;;-3.45;54.67;95961.03;6195213;23;20200;-64
2022/01/14 06:21:06;;;;;;;23.33;15.50;;;;;;;-3.46;54.64;95949.09;6170031;23;20182;-65
2022/01/14 06:23:32;;;;;;;20.80;14.70;;;;;;;-3.38;54.61;95962.56;6194679;23;20198;-65
2022/01/14 06:25:57;;;;;;;21.43;14.10;;;;;;;-3.46;54.50;95964.50;6169881;23;20198;-64
2022/01/14 06:28:23;;;;;;;21.30;15.33;;;;;;;-3.53;55.10;95958.69;6168791;23;20206;-64
2022/01/14 06:30:49;;;;;;;20.53;14.40;;;;;;;-3.46;55.28;95946.50;6169135;23;20194;-67
2022/01/14 06:33:15;;;;;;;24.80;16.10;;;;;;;-3.38;54.76;95949.69;6195590;23;20178;-64
2022/01/14 06:35:41;;;;;;;21.90;14.10;;;;;;;-3.22;54.41;95948.34;6169089;23;20212;-66
2022/01/14 06:38:06;;;;;;;22.17;14.97;;;;;;;-3.21;55.03;95946.63;6169242;23;20217;-67
2022/01/14 06:40:33;;;;;;;21.90;13.93;;;;;;;-3.22;54.64;95945.78;6169755;23;20214;-69
2022/01/14 06:42:59;;;;;;;20.97;14.30;;;;;;;-3.12;55.13;95947.19;6194417;23;20253;-66
2022/01/14 06:45:26;;;;;;;23.37;14.93;;;;;;;-3.06;55.34;95937.63;6167951;23;20201;-66
2022/01/14 06:47:51;;;;;;;23.40;14.77;;;;;;;-2.85;55.28;95936.94;6195785;23;20178;-67
2022/01/14 06:50:17;;;;;;;21.37;13.90;;;;;;;-2.89;55.98;95943.06;6168484;23;20213;-66
2022/01/14 06:52:43;;;;;;;19.37;13.73;;;;;;;-2.74;56.47;95946.91;6194810;23;20198;-65
2022/01/14 06:55:09;;;;;;;20.20;13.53;;;;;;;-2.64;57.37;95947.47;6168838;23;20257;-67
2022/01/14 06:57:38;;;;;;;21.23;13.53;;;;;;;-2.58;57.57;95937.78;6169806;23;20186;-66
2022/01/14 07:00:10;;;;;;;20.83;12.87;;;;;;;-2.51;57.21;95923.84;6196185;23;20176;-66
2022/01/14 07:02:35;;;;;;;18.90;12.80;;;;;;;-2.50;57.63;95917.78;6193567;23;20266;-67
2022/01/14 07:05:01;;;;;;;22.30;12.60;;;;;;;-2.37;57.78;95923.38;6167716;23;20202;-66
2022/01/14 07:07:27;;;;;;;16.73;12.20;;;;;;;-2.23;57.71;95912.59;6192799;23;20237;-66
2022/01/14 07:09:57;;;;;;;16.80;12.00;;;;;;;-2.05;57.61;95906.81;6168235;23;20282;-67
2022/01/14 07:12:25;;;;;;;22.37;12.93;;;;;;;-2.04;58.00;95899.91;6168472;23;20260;-65
2022/01/14 07:14:51;;;;;;;17.87;12.20;;;;;;;-2.12;57.73;95899.34;6195194;23;20228;-65
2022/01/14 07:17:16;;;;;;;18.40;12.60;;;;;;;-2.06;58.01;95888.81;6168391;23;20264;-63
2022/01/14 07:19:42;;;;;;;18.17;11.60;;;;;;;-2.02;58.03;95888.66;6168105;23;20217;-63
2022/01/14 07:22:08;;;;;;;17.23;11.80;;;;;;;-2.02;58.22;95886.06;6193802;23;20241;-65
2022/01/14 07:24:33;;;;;;;20.23;12.60;;;;;;;-1.90;58.14;95897.66;6168356;23;20182;-63
2022/01/14 07:26:59;;;;;;;14.10;10.53;;;;;;;-1.82;58.69;95890.53;6168722;23;20229;-62
2022/01/14 07:29:24;;;;;;;19.10;11.63;;;;;;;-1.66;58.46;95889.94;6193369;23;20206;-64
2022/01/14 07:31:51;;;;;;;17.90;11.93;;;;;;;-1.60;58.45;95892.31;6167304;23;20197;-65
2022/01/14 07:34:17;;;;;;;18.10;11.80;;;;;;;-1.52;58.76;95890.28;6168585;23;20213;-65
2022/01/14 07:36:43;;;;;;;16.13;11.03;;;;;;;-1.58;59.48;95893.06;6169034;23;20177;-64
2022/01/14 07:39:08;;;;;;;19.90;10.93;;;;;;;-1.49;59.38;95892.75;6193064;23;20186;-64
2022/01/14 07:41:34;;;;;;;17.97;11.27;;;;;;;-1.39;59.09;95898.38;6167832;23;20198;-66
2022/01/14 07:44:01;;;;;;;21.17;11.60;;;;;;;-1.34;59.32;95888.72;6166076;23;20280;-65
2022/01/14 07:46:27;;;;;;;23.93;14.83;;;;;;;-1.25;58.97;95893.56;6166716;23;20198;-64
2022/01/14 07:48:53;;;;;;;19.10;12.83;;;;;;;-1.11;58.74;95880.13;6166637;23;20213;-64
2022/01/14 07:51:18;;;;;;;16.03;10.80;;;;;;;-1.06;58.59;95872.19;6169326;23;20276;-65
2022/01/14 07:53:44;;;;;;;17.03;11.10;;;;;;;-1.10;58.91;95881.78;6168728;23;20217;-63
2022/01/14 07:56:12;;;;;;;15.73;10.87;;;;;;;-0.96;58.56;95873.53;6167963;23;20205;-65
2022/01/14 07:58:39;;;;;;;15.67;11.07;;;;;;;-0.99;58.13;95863.28;6167213;23;20202;-64
2022/01/14 08:01:05;;;;;;;15.57;10.70;;;;;;;-0.90;58.30;95875.84;6167350;23;20193;-64
2022/01/14 08:03:31;;;;;;;16.77;11.67;;;;;;;-0.73;57.25;95868.25;6192170;23;20233;-66
2022/01/14 08:05:58;;;;;;;18.00;11.93;;;;;;;-0.85;57.54;95860.19;6194390;23;20209;-66
2022/01/14 08:08:24;;;;;;;15.97;12.00;;;;;;;-0.71;57.38;95853.53;6194121;23;20214;-62
2022/01/14 08:10:50;;;;;;;20.30;12.70;;;;;;;-0.74;57.60;95856.25;6193881;23;20275;-64
2022/01/14 08:13:15;;;;;;;20.30;13.13;;;;;;;-0.62;57.64;95848.91;6167477;23;20194;-63
2022/01/14 08:15:41;;;;;;;19.20;12.90;;;;;;;-0.55;57.23;95852.91;6167312;23;20185;-65
2022/01/14 08:18:07;;;;;;;18.70;13.10;;;;;;;-0.57;57.99;95850.38;6167304;23;20255;-63
2022/01/14 08:20:33;;;;;;;16.30;12.30;;;;;;;-0.43;57.90;95857.53;6167027;23;20242;-64
2022/01/14 08:22:59;;;;;;;19.13;12.90;;;;;;;-0.33;57.25;95845.91;6192022;23;20201;-64
2022/01/14 08:25:26;;;;;;;21.67;14.23;;;;;;;-0.40;57.64;95844.53;6167699;23;20194;-67
2022/01/14 08:27:54;;;;;;;19.83;13.47;;;;;;;-0.26;57.09;95843.94;6193569;23;20205;-68
2022/01/14 08:30:20;;;;;;;19.33;12.80;;;;;;;-0.19;56.84;95845.31;6193775;23;20206;-63
2022/01/14 08:32:46;;;;;;;16.50;12.53;;;;;;;-0.07;56.77;95843.97;6192153;23;20260;-68
2022/01/14 08:35:11;;;;;;;19.50;12.73;;;;;;;0.13;56.57;95836.16;6166213;23;20204;-65
2022/01/14 08:37:38;;;;;;;18.07;12.17;;;;;;;0.34;56.45;95831.75;6165836;23;20213;-65
2022/01/14 08:40:07;;;;;;;23.47;13.43;;;;;;;0.36;56.53;95821.34;6191651;23;20284;-64
2022/01/14 08:42:33;;;;;;;16.90;12.27;;;;;;;0.29;56.54;95815.59;6191346;23;20190;-63
2022/01/14 08:44:59;;;;;;;20.83;15.03;;;;;;;0.50;56.32;95800.84;6193066;23;20197;-64
2022/01/14 08:47:24;;;;;;;18.53;13.07;;;;;;;0.69;55.64;95818.09;6167772;23;20205;-64
2022/01/14 08:49:50;;;;;;;16.33;12.43;;;;;;;0.58;56.02;95808.25;6168646;23;20206;-63
2022/01/14 08:52:16;;;;;;;19.50;12.87;;;;;;;0.73;55.61;95820.50;6193637;23;20201;-63
2022/01/14 08:54:42;;;;;;;15.57;12.73;;;;;;;0.80;55.88;95823.59;6193587;23;20209;-63
2022/01/14 08:57:08;;;;;;;17.10;12.10;;;;;;;0.76;56.02;95814.31;6194034;23;20167;-63
2022/01/14 08:59:33;;;;;;;17.03;11.03;;;;;;;0.86;56.69;95810.38;6193106;23;20197;-64
2022/01/14 09:02:00;;;;;;;14.33;10.80;;;;;;;0.82;57.62;95801.91;6167814;23;20204;-64
2022/01/14 09:04:25;;;;;;;17.00;11.37;;;;;;;0.81;57.90;95792.47;6192486;23;20221;-64
2022/01/14 09:06:51;;;;;;;15.00;10.77;;;;;;;0.69;58.94;95800.81;6192302;23;20198;-64
2022/01/14 09:09:17;;;;;;;11.30;8.40;;;;;;;0.86;59.13;95805.22;6191806;23;20262;-64
2022/01/14 09:11:43;;;;;;;11.30;7.43;;;;;;;1.05;59.25;95789.63;6166270;23;20271;-64
2022/01/14 09:14:09;;;;;;;8.97;6.40;;;;;;;1.26;58.56;95817.06;6191175;23;20202;-65
2022/01/14 09:16:35;;;;;;;9.33;6.47;;;;;;;1.22;59.13;95788.78;6168277;23;20225;-67
2022/01/14 09:19:01;;;;;;;9.43;6.07;;;;;;;1.19;59.02;95794.94;6193859;23;20213;-66
2022/01/14 09:21:27;;;;;;;9.60;7.00;;;;;;;1.29;58.93;95772.84;6166658;23;20193;-64
2022/01/14 09:24:05;;;;;;;10.57;7.30;;;;;;;1.54;58.43;95771.59;6166195;23;20245;-64
2022/01/14 09:26:36;;;;;;;8.83;6.80;;;;;;;1.67;57.60;95780.44;6165588;23;20209;-63
2022/01/14 09:29:04;;;;;;;6.73;5.77;;;;;;;1.83;57.64;95771.88;6192729;23;20198;-65
2022/01/14 09:31:29;;;;;;;8.67;6.70;;;;;;;1.75;57.53;95748.94;6193635;23;20205;-63
2022/01/14 09:33:55;;;;;;;8.53;6.27;;;;;;;2.03;57.28;95747.47;6194416;23;20257;-65
2022/01/14 09:36:20;;;;;;;7.97;6.40;;;;;;;2.09;56.88;95724.63;6169093;23;20237;-64
2022/01/14 09:38:46;;;;;;;8.97;6.90;;;;;;;1.86;57.40;95740.59;6193459;23;20253;-63
2022/01/14 09:41:14;;;;;;;10.03;6.57;;;;;;;1.69;58.35;95744.91;6193712;23;20198;-64
2022/01/14 09:43:39;;;;;;;9.50;6.60;;;;;;;1.77;58.03;95741.91;6191609;23;20260;-64
2022/01/14 09:46:08;;;;;;;9.37;6.70;;;;;;;1.92;57.90;95750.63;6193334;23;20194;-67
2022/01/14 09:48:34;;;;;;;7.73;5.70;;;;;;;1.96;57.61;95732.22;6169722;23;20196;-64
2022/01/14 09:51:01;;;;;;;7.20;5.13;;;;;;;2.09;57.45;95747.16;6170446;23;20186;-64
2022/01/14 09:53:28;;;;;;;7.23;5.47;;;;;;;2.07;57.44;95738.59;6170380;23;20194;-64
2022/01/14 09:55:53;;;;;;;8.77;5.87;;;;;;;1.89;57.84;95724.84;6196393;23;20197;-63
2022/01/14 09:58:22;;;;;;;8.17;6.00;;;;;;;2.18;57.50;95710.31;6195505;23;20268;-62
2022/01/14 10:00:48;;;;;;;7.30;5.80;;;;;;;2.18;57.37;95705.97;6195387;23;20198;-62
2022/01/14 10:03:25;;;;;;;7.07;5.20;;;;;;;2.25;57.48;95703.88;6194684;23;20189;-64
2022/01/14 10:05:55;;;;;;;9.00;6.43;;;;;;;2.34;57.09;95695.56;6195515;23;20198;-62
2022/01/14 10:08:26;;;;;;;8.80;6.10;;;;;;;2.19;57.38;95679.13;6195002;23;20206;-63
2022/01/14 10:10:58;;;;;;;6.93;6.00;;;;;;;2.27;57.62;95701.19;6195566;23;20201;-62
2022/01/14 10:13:28;;;;;;;7.50;5.97;;;;;;;2.42;57.07;95713.31;6169658;23;20198;-66
2022/01/14 10:16:08;;;;;;;8.63;6.00;;;;;;;2.46;56.74;95703.59;6169485;23;20293;-64
2022/01/14 10:18:35;;;;;;;8.53;5.83;;;;;;;2.13;57.77;95686.38;6169968;23;20182;-64
2022/01/14 10:21:06;;;;;;;7.53;6.03;;;;;;;2.28;57.35;95676.94;6170011;23;20201;-64
2022/01/14 10:23:49;;;;;;;6.50;5.80;;;;;;;2.65;56.47;95673.94;6169821;23;20233;-65
2022/01/14 10:26:16;;;;;;;7.50;6.10;;;;;;;2.65;56.23;95673.09;6194740;23;20449;-64
2022/01/14 10:28:45;;;;;;;9.07;5.93;;;;;;;2.90;56.41;95661.28;6169414;23;20252;-64
2022/01/14 10:31:11;;;;;;;8.30;6.20;;;;;;;3.13;55.41;95658.19;6170399;23;20217;-64
2022/01/14 10:33:37;;;;;;;9.50;6.77;;;;;;;3.50;54.46;95675.00;6169142;23;20198;-64
2022/01/14 10:36:03;;;;;;;7.20;5.83;;;;;;;3.22;54.60;95662.81;6195858;23;20220;-64
2022/01/14 10:38:39;;;;;;;7.70;6.13;;;;;;;3.48;53.93;95653.47;6194575;23;20816;-63
2022/01/14 10:41:11;;;;;;;8.07;6.23;;;;;;;3.56;53.90;95646.97;6195132;23;20193;-63
2022/01/14 10:43:38;;;;;;;8.03;5.77;;;;;;;3.60;53.34;95645.84;6169057;23;20206;-63
2022/01/14 10:46:09;;;;;;;7.37;5.93;;;;;;;3.61;53.24;95669.16;6194786;23;20202;-68
2022/01/14 10:48:40;;;;;;;6.97;5.37;;;;;;;3.45;52.90;95652.81;6196332;23;20213;-65
2022/01/14 10:51:08;;;;;;;5.80;4.63;;;;;;;3.65;52.75;95649.00;6168976;23;20189;-63
2022/01/14 10:53:42;;;;;;;6.00;5.07;;;;;;;3.85;52.27;95653.81;6193233;23;20293;-65
2022/01/14 10:56:10;;;;;;;5.23;4.73;;;;;;;3.43;53.10;95619.09;6192746;23;20208;-62
2022/01/14 10:58:37;;;;;;;6.80;5.30;;;;;;;3.60;52.87;95612.88;6190330;23;20193;-64
2022/01/14 11:01:14;;;;;;;6.90;4.87;;;;;;;3.89;52.25;95610.22;6188318;23;20214;-63
2022/01/14 11:03:41;;;;;;;7.53;5.47;;;;;;;3.95;51.57;95612.44;6165781;23;20240;-62
2022/01/14 11:06:22;;;;;;;6.90;5.50;;;;;;;4.17;51.22;95606.69;6165066;23;20201;-62
2022/01/14 11:08:54;;;;;;;7.77;5.97;;;;;;;4.35;50.64;95596.88;6164369;23;20217;-62
2022/01/14 11:11:20;;;;;;;7.13;5.97;;;;;;;4.59;49.91;95589.22;6164626;23;20217;-62
2022/01/14 11:13:46;;;;;;;7.87;5.93;;;;;;;4.38;50.57;95579.28;6164726;23;20193;-61
2022/01/14 11:16:12;;;;;;;6.70;5.90;;;;;;;4.49;50.22;95573.38;6164833;23;20220;-63
2022/01/14 11:18:38;;;;;;;7.23;5.70;;;;;;;4.80;49.59;95568.72;6166036;23;20178;-62
2022/01/14 11:23:48;;;;;;;7.17;5.10;;;;;;;5.03;49.02;95551.53;6194445;23;20204;-61
2022/01/14 11:26:17;;;;;;;8.17;5.17;;;;;;;4.72;49.69;95565.78;6167700;23;20194;-63
2022/01/14 11:28:44;;;;;;;7.13;5.50;;;;;;;4.78;49.30;95552.34;6193938;23;20209;-62
2022/01/14 11:31:30;;;;;;;6.60;5.47;;;;;;;4.96;49.16;95556.31;6193698;23;20198;-64
2022/01/14 11:33:57;;;;;;;5.17;4.67;;;;;;;4.81;48.97;95546.94;6193395;23;20216;-63
2022/01/14 11:36:22;;;;;;;7.37;4.47;;;;;;;4.57;49.62;95537.25;6195208;23;20169;-62
2022/01/14 11:38:48;;;;;;;6.43;4.40;;;;;;;4.54;49.51;95528.78;6195229;23;20194;-62
2022/01/14 11:41:17;;;;;;;4.77;4.20;;;;;;;4.97;48.69;95525.88;6168679;23;20194;-62
2022/01/14 11:43:53;;;;;;;6.50;4.80;;;;;;;4.99;48.42;95529.22;6193038;23;20228;-64
2022/01/14 11:46:30;;;;;;;6.30;5.50;;;;;;;5.06;48.56;95509.63;6193112;23;20197;-62
2022/01/14 11:48:56;;;;;;;7.07;5.27;;;;;;;5.58;46.89;95503.34;6168383;23;20206;-64
2022/01/14 11:51:22;;;;;;;6.13;4.57;;;;;;;5.86;46.15;95501.38;6168534;23;20237;-62
2022/01/14 11:53:53;;;;;;;5.23;4.53;;;;;;;5.44;47.19;95503.50;6168511;23;20194;-64